Tera North, Indiana
Current Conditions -  °F | °C
As of 8:53 AM on Tuesday 27 Jan 2015 (Local Time) from KHUF Reporting Station
Haze Haze  
Wind Chill: 24°   Ceiling: 500
Heat Index: 29°   Visibility: 4mi
Dew Point: 27°   Wind: 5mph
Humidity: 92%   Direction: 40°NE
Pressure: 30.05"   Gusts: NA
Location:  39.543°N, 87.3153°W
Report Text: KHUF 271353Z 04004KT 4SM BR OVC005 M02/M03 A3005 RMK AO2 CIG 004V009 SLP182 T10171028
Loading
Personal Weather Stations






























Interactive Weather Map New forecast layout! Learn more

10-Day Weather Forecast

Advertisements
Track Severe Weather on mobile